createdAt,value
2023-04-30T00:01:31.942Z,99066.78
2023-04-30T00:03:59.091Z,99063.91
2023-04-30T00:06:28.234Z,99079.94
2023-04-30T00:08:55.546Z,99054.81
2023-04-30T00:11:22.510Z,99060.78
2023-04-30T00:13:49.873Z,99031.38
2023-04-30T00:16:16.815Z,99064.16
2023-04-30T00:18:43.834Z,99059.56
2023-04-30T00:21:10.678Z,99063.03
2023-04-30T00:23:37.579Z,99055.22
2023-04-30T00:26:04.603Z,99056.72
2023-04-30T00:28:31.613Z,99054.66
2023-04-30T00:30:58.437Z,99029.41
2023-04-30T00:33:25.476Z,99013.56
2023-04-30T00:35:52.314Z,99014.88
2023-04-30T00:38:19.196Z,99010.34
2023-04-30T00:40:47.109Z,99009.13
2023-04-30T00:43:14.014Z,98967.06
2023-04-30T00:45:40.910Z,98997.81
2023-04-30T00:48:07.996Z,98985.81
2023-04-30T00:50:36.932Z,98990.41
2023-04-30T00:53:04.109Z,98976.22
2023-04-30T00:55:31.179Z,98988.47
2023-04-30T00:58:00.149Z,98950.34
2023-04-30T01:00:27.809Z,98961.16
2023-04-30T01:02:56.167Z,98957.84
2023-04-30T01:05:23.382Z,98935.38
2023-04-30T01:07:51.015Z,98944.03
2023-04-30T01:10:19.808Z,98943.72
2023-04-30T01:12:49.867Z,98945.22
2023-04-30T01:15:27.734Z,98936.94
2023-04-30T01:18:09.537Z,98947.00
2023-04-30T01:20:41.655Z,98949.25
2023-04-30T01:23:34.158Z,98935.88
2023-04-30T01:26:11.163Z,98938.53
2023-04-30T01:28:39.593Z,98934.03
2023-04-30T01:31:19.023Z,98931.41
2023-04-30T01:33:46.107Z,98902.56
2023-04-30T01:36:41.674Z,98914.84
2023-04-30T01:39:14.646Z,98908.56
2023-04-30T01:42:12.177Z,98907.53
2023-04-30T01:45:09.613Z,98906.72
2023-04-30T01:47:48.995Z,98904.09
2023-04-30T01:50:25.101Z,98906.78
2023-04-30T01:52:55.714Z,98891.69
2023-04-30T01:55:37.342Z,98881.28
2023-04-30T01:58:12.577Z,98881.66
2023-04-30T02:00:39.564Z,98873.75
2023-04-30T02:03:07.102Z,98869.00
2023-04-30T02:05:34.636Z,98843.88
2023-04-30T02:08:01.516Z,98849.09
2023-04-30T02:10:29.270Z,98860.66
2023-04-30T02:12:56.194Z,98856.31
2023-04-30T02:15:23.131Z,98876.56
2023-04-30T02:17:50.070Z,98868.31
2023-04-30T02:20:17.224Z,98866.47
2023-04-30T02:22:44.130Z,98845.56
2023-04-30T02:25:11.181Z,98856.41
2023-04-30T02:27:38.785Z,98847.13
2023-04-30T02:30:08.780Z,98861.28
2023-04-30T02:32:36.014Z,98853.44
2023-04-30T02:35:03.175Z,98867.25
2023-04-30T02:37:30.501Z,98868.41
2023-04-30T02:39:57.896Z,98865.44
2023-04-30T02:42:25.787Z,98872.53
2023-04-30T02:44:52.727Z,98865.13
2023-04-30T02:47:19.666Z,98845.66
2023-04-30T02:49:46.586Z,98838.13
2023-04-30T02:52:13.472Z,98849.41
2023-04-30T02:54:40.325Z,98860.66
2023-04-30T02:57:07.257Z,98835.19
2023-04-30T02:59:34.156Z,98843.50
2023-04-30T03:02:01.004Z,98840.91
2023-04-30T03:04:27.926Z,98864.44
2023-04-30T03:06:54.874Z,98833.00
2023-04-30T03:09:21.768Z,98839.03
2023-04-30T03:11:48.670Z,98845.78
2023-04-30T03:14:15.582Z,98853.28
2023-04-30T03:16:42.584Z,98830.09
2023-04-30T03:19:09.587Z,98834.94
2023-04-30T03:21:36.479Z,98857.06
2023-04-30T03:24:03.486Z,98818.13
2023-04-30T03:26:31.427Z,98831.56
2023-04-30T03:28:58.324Z,98811.38
2023-04-30T03:31:25.189Z,98813.63
2023-04-30T03:33:52.115Z,98847.69
2023-04-30T03:36:18.971Z,98834.56
2023-04-30T03:38:45.904Z,98816.25
2023-04-30T03:41:13.221Z,98801.63
2023-04-30T03:43:40.112Z,98821.47
2023-04-30T03:46:07.097Z,98814.34
2023-04-30T03:48:34.098Z,98824.81
2023-04-30T03:51:00.939Z,98815.09
2023-04-30T03:53:27.907Z,98797.13
2023-04-30T03:55:55.569Z,98793.38
2023-04-30T03:58:22.812Z,98816.56
2023-04-30T04:00:50.151Z,98811.31
2023-04-30T04:03:17.679Z,98801.19
2023-04-30T04:05:44.840Z,98799.25
2023-04-30T04:08:12.357Z,98809.06
2023-04-30T04:10:39.754Z,98800.41
2023-04-30T04:13:07.122Z,98769.66
2023-04-30T04:15:34.976Z,98762.53
2023-04-30T04:18:02.834Z,98783.84
2023-04-30T04:20:30.151Z,98777.75
2023-04-30T04:22:57.471Z,98766.09
2023-04-30T04:25:24.649Z,98782.56
2023-04-30T04:27:52.122Z,98768.88
2023-04-30T04:30:19.132Z,98760.63
2023-04-30T04:32:47.438Z,98726.97
2023-04-30T04:35:15.706Z,98731.44
2023-04-30T04:37:43.111Z,98733.66
2023-04-30T04:40:11.954Z,98728.13
2023-04-30T04:42:40.077Z,98694.38
2023-04-30T04:45:07.806Z,98704.09
2023-04-30T04:47:35.120Z,98766.28
2023-04-30T04:50:02.313Z,98716.66
2023-04-30T04:52:29.716Z,98731.78
2023-04-30T04:54:56.685Z,98724.47
2023-04-30T04:57:23.640Z,98738.91
2023-04-30T04:59:50.583Z,98712.41
2023-04-30T05:02:17.478Z,98712.53
2023-04-30T05:04:44.648Z,98705.84
2023-04-30T05:07:11.521Z,98686.75
2023-04-30T05:09:38.408Z,98678.97
2023-04-30T05:12:05.718Z,98685.78
2023-04-30T05:14:32.633Z,98646.94
2023-04-30T05:16:59.474Z,98685.91
2023-04-30T05:19:26.374Z,98666.16
2023-04-30T05:21:53.189Z,98647.53
2023-04-30T05:24:20.276Z,98638.66
2023-04-30T05:26:47.121Z,98654.19
2023-04-30T05:29:13.976Z,98661.16
2023-04-30T05:31:41.023Z,98641.22
2023-04-30T05:34:07.953Z,98634.41
2023-04-30T05:36:34.855Z,98630.34
2023-04-30T05:39:01.800Z,98629.59
2023-04-30T05:41:28.707Z,98588.50
2023-04-30T05:43:55.551Z,98593.47
2023-04-30T05:46:22.634Z,98615.50
2023-04-30T05:48:49.653Z,98623.56
2023-04-30T05:51:16.562Z,98638.09
2023-04-30T05:53:43.476Z,98619.78
2023-04-30T05:56:10.342Z,98623.38
2023-04-30T05:58:37.220Z,98607.81
2023-04-30T06:01:04.387Z,98618.09
2023-04-30T06:03:31.739Z,98605.72
2023-04-30T06:05:58.680Z,98549.13
2023-04-30T06:08:25.531Z,98596.53
2023-04-30T06:10:52.510Z,98610.56
2023-04-30T06:13:19.406Z,98618.66
2023-04-30T06:15:46.392Z,98599.09
2023-04-30T06:18:13.516Z,98611.59
2023-04-30T06:20:40.916Z,98603.75
2023-04-30T06:23:07.891Z,98598.94
2023-04-30T06:25:34.734Z,98623.88
2023-04-30T06:28:01.607Z,98613.06
2023-04-30T06:30:28.569Z,98582.16
2023-04-30T06:32:55.593Z,98601.19
2023-04-30T06:35:23.507Z,98587.59
2023-04-30T06:37:50.397Z,98585.84
2023-04-30T06:40:19.718Z,98591.88
2023-04-30T06:42:47.572Z,98576.09
2023-04-30T06:45:14.974Z,98571.38
2023-04-30T06:47:41.924Z,98589.53
2023-04-30T06:50:09.486Z,98568.38
2023-04-30T06:52:36.352Z,98545.38
2023-04-30T06:55:03.564Z,98576.13
2023-04-30T06:57:30.625Z,98533.22
2023-04-30T06:59:57.732Z,98530.09
2023-04-30T07:02:24.770Z,98539.53
2023-04-30T07:04:51.821Z,98548.25
2023-04-30T07:07:18.682Z,98539.78
2023-04-30T07:09:45.662Z,98522.50
2023-04-30T07:12:12.560Z,98511.66
2023-04-30T07:14:39.633Z,98532.41
2023-04-30T07:17:06.594Z,98519.41
2023-04-30T07:19:33.597Z,98508.78
2023-04-30T07:22:15.752Z,98539.56
2023-04-30T07:24:45.804Z,98520.91
2023-04-30T07:27:12.831Z,98531.88
2023-04-30T07:29:44.952Z,98509.06
2023-04-30T07:32:17.426Z,98529.91
2023-04-30T07:34:44.393Z,98493.16
2023-04-30T07:37:12.399Z,98505.88
2023-04-30T07:39:42.154Z,98473.59
2023-04-30T07:42:09.085Z,98470.84
2023-04-30T07:44:38.073Z,98492.97
2023-04-30T07:47:08.212Z,98472.38
2023-04-30T07:49:35.381Z,98492.00
2023-04-30T07:52:08.066Z,98473.09
2023-04-30T07:54:40.848Z,98461.25
2023-04-30T07:57:08.667Z,98477.59
2023-04-30T07:59:35.568Z,98465.31
2023-04-30T08:02:04.502Z,98478.13
2023-04-30T08:04:31.716Z,98470.97
2023-04-30T08:07:04.762Z,98465.31
2023-04-30T08:09:31.782Z,98421.25
2023-04-30T08:11:58.751Z,98492.16
2023-04-30T08:14:25.958Z,98442.25
2023-04-30T08:16:52.988Z,98427.66
2023-04-30T08:19:19.938Z,98429.31
2023-04-30T08:21:46.930Z,98442.28
2023-04-30T08:24:25.306Z,98447.34
2023-04-30T08:26:53.596Z,98441.22
2023-04-30T08:29:26.195Z,98436.91
2023-04-30T08:31:53.250Z,98428.53
2023-04-30T08:34:20.228Z,98425.41
2023-04-30T08:39:40.566Z,98389.81
2023-04-30T08:42:09.842Z,98386.78
2023-04-30T08:44:37.632Z,98414.34
2023-04-30T08:47:04.809Z,98395.91
2023-04-30T08:49:35.097Z,98388.34
2023-04-30T08:52:03.048Z,98399.47
2023-04-30T08:54:31.821Z,98387.28
2023-04-30T08:57:01.968Z,98370.13
2023-04-30T08:59:29.002Z,98362.72
2023-04-30T09:02:02.639Z,98373.63
2023-04-30T09:04:29.685Z,98355.25
2023-04-30T09:06:56.930Z,98378.00
2023-04-30T09:09:29.349Z,98384.47
2023-04-30T09:12:15.251Z,98388.97
2023-04-30T09:15:05.201Z,98392.31
2023-04-30T09:17:33.448Z,98361.53
2023-04-30T09:20:13.956Z,98348.38
2023-04-30T09:22:42.568Z,98339.19
2023-04-30T09:25:10.536Z,98348.63
2023-04-30T09:27:37.569Z,98348.63
2023-04-30T09:30:04.832Z,98351.63
2023-04-30T09:32:31.813Z,98344.53
2023-04-30T09:35:00.834Z,98335.84
2023-04-30T09:37:38.409Z,98346.06
2023-04-30T09:40:06.214Z,98341.28
2023-04-30T09:42:34.793Z,98322.56
2023-04-30T09:45:20.614Z,98334.81
2023-04-30T09:47:47.601Z,98342.56
2023-04-30T09:50:14.531Z,98331.88
2023-04-30T09:52:41.871Z,98341.94
2023-04-30T09:55:09.525Z,98327.63
2023-04-30T09:57:42.749Z,98321.72
2023-04-30T10:00:11.254Z,98332.84
2023-04-30T10:02:57.538Z,98337.25
2023-04-30T10:05:26.693Z,98340.09
2023-04-30T10:07:53.616Z,98333.47
2023-04-30T10:10:22.234Z,98315.69
2023-04-30T10:13:06.513Z,98306.97
2023-04-30T10:15:51.821Z,98293.00
2023-04-30T10:18:23.520Z,98294.41
2023-04-30T10:21:15.193Z,98297.84
2023-04-30T10:23:42.646Z,98264.28
2023-04-30T10:26:12.718Z,98296.44
2023-04-30T10:28:40.059Z,98300.53
2023-04-30T10:31:08.707Z,98272.13
2023-04-30T10:33:51.540Z,98248.69
2023-04-30T10:36:29.683Z,98269.84
2023-04-30T10:38:58.581Z,98255.09
2023-04-30T10:41:26.949Z,98299.75
2023-04-30T10:43:57.392Z,98278.66
2023-04-30T10:46:24.878Z,98274.22
2023-04-30T10:48:58.090Z,98270.72
2023-04-30T10:51:45.146Z,98289.09
2023-04-30T10:54:15.905Z,98277.19
2023-04-30T10:57:03.011Z,98283.19
2023-04-30T10:59:48.247Z,98231.13
2023-04-30T11:02:18.474Z,98275.00
2023-04-30T11:05:07.019Z,98275.13
2023-04-30T11:07:34.301Z,98268.91
2023-04-30T11:10:02.580Z,98263.94
2023-04-30T11:12:30.164Z,98281.09
2023-04-30T11:15:12.603Z,98254.84
2023-04-30T11:17:40.237Z,98249.78
2023-04-30T11:20:12.407Z,98252.22
2023-04-30T11:22:39.559Z,98228.47
2023-04-30T11:25:10.998Z,98228.97
2023-04-30T11:27:42.470Z,98235.50
2023-04-30T11:30:15.647Z,98235.22
2023-04-30T11:32:48.123Z,98240.78
2023-04-30T11:35:18.639Z,98224.88
2023-04-30T11:37:45.760Z,98223.69
2023-04-30T11:40:14.561Z,98220.91
2023-04-30T11:42:45.429Z,98229.31
2023-04-30T11:45:15.733Z,98217.38
2023-04-30T11:47:50.893Z,98222.59
2023-04-30T11:50:22.956Z,98225.91
2023-04-30T11:52:51.805Z,98220.47
2023-04-30T11:55:20.433Z,98198.63
2023-04-30T11:57:50.049Z,98210.47
2023-04-30T12:00:36.083Z,98201.09
2023-04-30T12:03:03.862Z,98192.38
2023-04-30T12:05:31.186Z,98181.72
2023-04-30T12:08:01.034Z,98196.31
2023-04-30T12:10:28.086Z,98177.13
2023-04-30T12:12:54.996Z,98184.38
2023-04-30T12:15:23.992Z,98197.44
2023-04-30T12:17:50.978Z,98184.22
2023-04-30T12:20:18.022Z,98186.41
2023-04-30T12:22:45.227Z,98189.00
2023-04-30T12:25:14.854Z,98202.22
2023-04-30T12:27:48.864Z,98181.72
2023-04-30T12:30:19.267Z,98156.75
2023-04-30T12:32:49.959Z,98189.00
2023-04-30T12:35:21.551Z,98164.84
2023-04-30T12:37:53.151Z,98171.00
2023-04-30T12:40:21.885Z,98189.25
2023-04-30T12:42:49.012Z,98165.19
2023-04-30T12:45:51.251Z,98167.69
2023-04-30T12:48:23.360Z,98159.16
2023-04-30T12:51:14.848Z,98145.84
2023-04-30T12:53:46.192Z,98153.91
2023-04-30T12:56:19.773Z,98158.78
2023-04-30T12:58:48.038Z,98165.47
2023-04-30T13:01:23.258Z,98147.69
2023-04-30T13:03:53.413Z,98137.56
2023-04-30T13:06:24.013Z,98131.81
2023-04-30T13:08:58.366Z,98140.34
2023-04-30T13:11:26.248Z,98132.25
2023-04-30T13:13:56.062Z,98138.41
2023-04-30T13:16:23.694Z,98130.59
2023-04-30T13:18:50.758Z,98106.97
2023-04-30T13:21:18.284Z,98112.44
2023-04-30T13:23:52.751Z,98100.13
2023-04-30T13:26:21.929Z,98089.31
2023-04-30T13:28:48.849Z,98100.13
2023-04-30T13:31:34.679Z,98121.28
2023-04-30T13:34:01.773Z,98102.69
2023-04-30T13:36:28.694Z,98110.41
2023-04-30T13:38:55.715Z,98112.31
2023-04-30T13:41:22.544Z,98093.13
2023-04-30T13:43:49.762Z,98105.53
2023-04-30T13:46:16.783Z,98114.69
2023-04-30T13:48:43.862Z,98105.66
2023-04-30T13:51:10.720Z,98097.53
2023-04-30T13:53:37.778Z,98081.31
2023-04-30T13:56:05.249Z,98092.88
2023-04-30T13:58:32.538Z,98097.47
2023-04-30T14:00:59.682Z,98066.81
2023-04-30T14:03:45.504Z,98063.63
2023-04-30T14:06:12.754Z,98064.44
2023-04-30T14:08:39.581Z,98074.81
2023-04-30T14:11:06.532Z,98071.16
2023-04-30T14:13:51.750Z,98071.50
2023-04-30T14:16:37.363Z,98082.16
2023-04-30T14:19:04.373Z,98059.78
2023-04-30T14:21:31.227Z,98090.31
2023-04-30T14:23:58.148Z,98089.84
2023-04-30T14:26:30.873Z,98062.50
2023-04-30T14:29:16.707Z,98071.06
2023-04-30T14:31:43.930Z,98081.97
2023-04-30T14:34:10.786Z,98060.66
2023-04-30T14:36:37.832Z,98045.06
2023-04-30T14:39:04.948Z,98049.22
2023-04-30T14:41:36.199Z,98053.81
2023-04-30T14:44:21.960Z,98053.97
2023-04-30T14:47:07.695Z,98089.81
2023-04-30T14:49:34.655Z,98093.66
2023-04-30T14:52:01.516Z,98084.03
2023-04-30T14:54:29.880Z,98072.09
2023-04-30T14:56:56.831Z,98072.97
2023-04-30T14:59:23.734Z,98079.19
2023-04-30T15:02:09.671Z,98043.53
2023-04-30T15:04:36.970Z,98070.38
2023-04-30T15:07:04.153Z,98088.22
2023-04-30T15:09:31.122Z,98101.19
2023-04-30T15:11:58.029Z,98043.31
2023-04-30T15:14:25.000Z,98070.63
2023-04-30T15:17:10.678Z,98076.16
2023-04-30T15:19:40.489Z,98070.28
2023-04-30T15:22:07.766Z,98079.47
2023-04-30T15:24:34.771Z,98083.06
2023-04-30T15:27:02.394Z,98084.03
2023-04-30T15:29:29.293Z,98077.53
2023-04-30T15:31:58.760Z,98076.16
2023-04-30T15:34:29.959Z,98046.91
2023-04-30T15:37:01.806Z,98081.94
2023-04-30T15:39:29.062Z,98087.84
2023-04-30T15:42:17.870Z,98042.66
2023-04-30T15:44:44.804Z,98072.19
2023-04-30T15:47:11.916Z,98092.69
2023-04-30T15:49:42.173Z,98101.59
2023-04-30T15:52:09.157Z,98100.06
2023-04-30T15:55:13.456Z,98107.66
2023-04-30T15:57:40.506Z,98117.00
2023-04-30T16:00:07.998Z,98110.13
2023-04-30T16:02:41.265Z,98092.88
2023-04-30T16:05:09.015Z,98095.13
2023-04-30T16:07:38.233Z,98093.41
2023-04-30T16:10:05.940Z,98093.72
2023-04-30T16:12:33.196Z,98083.53
2023-04-30T16:15:01.478Z,98099.19
2023-04-30T16:17:29.459Z,98111.59
2023-04-30T16:19:56.707Z,98096.75
2023-04-30T16:22:23.784Z,98064.91
2023-04-30T16:24:53.991Z,98113.25
2023-04-30T16:27:39.352Z,98107.16
2023-04-30T16:30:07.134Z,98093.97
2023-04-30T16:32:34.092Z,98096.97
2023-04-30T16:35:01.100Z,98099.31
2023-04-30T16:37:29.262Z,98134.19
2023-04-30T16:39:59.826Z,98111.03
2023-04-30T16:42:26.787Z,98134.38
2023-04-30T16:44:53.743Z,98122.72
2023-04-30T16:47:20.623Z,98136.28
2023-04-30T16:49:48.869Z,98126.72
2023-04-30T16:52:15.749Z,98131.72
2023-04-30T16:54:42.584Z,98119.84
2023-04-30T16:57:09.443Z,98146.59
2023-04-30T16:59:36.318Z,98134.59
2023-04-30T17:02:21.740Z,98156.16
2023-04-30T17:04:48.782Z,98157.31
2023-04-30T17:07:36.424Z,98129.72
2023-04-30T17:10:03.979Z,98141.19
2023-04-30T17:12:31.100Z,98086.06
2023-04-30T17:14:58.049Z,98120.00
2023-04-30T17:17:24.960Z,98118.91
2023-04-30T17:19:51.963Z,98114.31
2023-04-30T17:22:18.833Z,98118.47
2023-04-30T17:24:48.767Z,98119.72
2023-04-30T17:27:15.976Z,98103.75
2023-04-30T17:29:42.911Z,98118.84
2023-04-30T17:32:09.976Z,98116.72
2023-04-30T17:34:37.831Z,98107.84
2023-04-30T17:37:04.792Z,98106.56
2023-04-30T17:39:31.781Z,98129.63
2023-04-30T17:41:59.150Z,98118.19
2023-04-30T17:44:26.235Z,98098.00
2023-04-30T17:46:54.170Z,98105.13
2023-04-30T17:49:21.114Z,98115.13
2023-04-30T17:51:47.980Z,98110.41
2023-04-30T17:54:14.952Z,98104.41
2023-04-30T17:57:00.483Z,98120.91
2023-04-30T17:59:28.891Z,98124.22
2023-04-30T18:01:56.039Z,98106.34
2023-04-30T18:04:23.229Z,98155.34
2023-04-30T18:07:08.612Z,98112.94
2023-04-30T18:09:35.546Z,98138.44
2023-04-30T18:12:02.601Z,98155.06
2023-04-30T18:14:29.665Z,98121.97
2023-04-30T18:16:56.682Z,98158.09
2023-04-30T18:19:23.791Z,98160.50
2023-04-30T18:21:50.915Z,98181.34
2023-04-30T18:24:17.952Z,98160.97
2023-04-30T18:27:03.780Z,98210.13
2023-04-30T18:29:31.110Z,98193.69
2023-04-30T18:31:58.166Z,98209.63
2023-04-30T18:34:25.234Z,98219.97
2023-04-30T18:36:52.067Z,98204.19
2023-04-30T18:39:19.108Z,98234.56
2023-04-30T18:41:46.114Z,98190.03
2023-04-30T18:44:13.108Z,98218.19
2023-04-30T18:46:58.657Z,98189.75
2023-04-30T18:49:25.991Z,98212.00
2023-04-30T18:52:30.496Z,98216.72
2023-04-30T18:54:57.564Z,98209.22
2023-04-30T18:57:24.476Z,98227.78
2023-04-30T18:59:54.865Z,98194.19
2023-04-30T19:02:22.052Z,98195.03
2023-04-30T19:04:54.949Z,98225.72
2023-04-30T19:07:24.735Z,98227.66
2023-04-30T19:09:51.837Z,98235.81
2023-04-30T19:12:18.970Z,98239.09
2023-04-30T19:14:48.097Z,98239.03
2023-04-30T19:17:15.316Z,98252.84
2023-04-30T19:19:45.264Z,98254.38
2023-04-30T19:22:12.185Z,98250.94
2023-04-30T19:24:42.185Z,98255.16
2023-04-30T19:27:09.792Z,98254.97
2023-04-30T19:29:36.988Z,98263.66
2023-04-30T19:32:07.038Z,98287.00
2023-04-30T19:34:36.717Z,98282.47
2023-04-30T19:37:03.797Z,98301.44
2023-04-30T19:39:31.878Z,98293.59
2023-04-30T19:41:58.938Z,98286.78
2023-04-30T19:44:29.313Z,98310.56
2023-04-30T19:46:56.323Z,98316.59
2023-04-30T19:49:24.661Z,98316.56
2023-04-30T19:51:53.613Z,98315.13
2023-04-30T19:54:23.209Z,98314.50
2023-04-30T19:56:50.231Z,98325.38
2023-04-30T19:59:17.163Z,98340.97
2023-04-30T20:01:44.130Z,98308.50
2023-04-30T20:04:11.242Z,98308.97
2023-04-30T20:06:38.421Z,98322.25
2023-04-30T20:09:05.752Z,98308.44
2023-04-30T20:11:32.960Z,98318.19
2023-04-30T20:13:59.877Z,98305.16
2023-04-30T20:16:27.159Z,98350.50
2023-04-30T20:18:54.190Z,98335.41
2023-04-30T20:21:39.962Z,98309.84
2023-04-30T20:24:07.028Z,98329.00
2023-04-30T20:26:33.905Z,98351.38
2023-04-30T20:29:00.962Z,98338.06
2023-04-30T20:31:27.922Z,98335.41
2023-04-30T20:33:54.904Z,98329.50
2023-04-30T20:36:21.908Z,98352.75
2023-04-30T20:38:51.135Z,98331.00
2023-04-30T20:41:17.990Z,98345.16
2023-04-30T20:43:45.018Z,98361.44
2023-04-30T20:46:13.751Z,98362.63
2023-04-30T20:48:45.493Z,98356.06
2023-04-30T20:51:12.750Z,98350.53
2023-04-30T20:53:39.762Z,98342.41
2023-04-30T20:56:06.720Z,98339.53
2023-04-30T20:58:33.840Z,98363.44
2023-04-30T21:01:03.156Z,98369.06
2023-04-30T21:03:30.140Z,98388.28
2023-04-30T21:05:57.148Z,98385.63
2023-04-30T21:08:24.013Z,98390.66
2023-04-30T21:10:51.039Z,98389.34
2023-04-30T21:13:18.083Z,98400.31
2023-04-30T21:15:45.058Z,98399.06
2023-04-30T21:18:12.130Z,98391.78
2023-04-30T21:21:05.270Z,98405.72
2023-04-30T21:23:32.273Z,98416.81
2023-04-30T21:25:59.402Z,98396.31
2023-04-30T21:28:26.395Z,98388.75
2023-04-30T21:30:53.660Z,98378.72
2023-04-30T21:33:20.935Z,98362.94
2023-04-30T21:36:06.695Z,98389.13
2023-04-30T21:38:33.850Z,98381.94
2023-04-30T21:41:00.818Z,98409.75
2023-04-30T21:43:27.789Z,98427.31
2023-04-30T21:45:54.720Z,98409.75
2023-04-30T21:48:21.636Z,98397.41
2023-04-30T21:50:49.776Z,98374.75
2023-04-30T21:53:16.886Z,98392.84
2023-04-30T21:55:43.821Z,98411.75
2023-04-30T21:58:10.816Z,98402.56
2023-04-30T22:00:37.652Z,98370.00
2023-04-30T22:05:31.531Z,98385.56
2023-04-30T22:07:58.501Z,98409.47
2023-04-30T22:10:25.387Z,98409.03
2023-04-30T22:12:52.257Z,98392.75
2023-04-30T22:15:19.153Z,98425.94
2023-04-30T22:17:46.177Z,98373.84
2023-04-30T22:20:13.436Z,98374.69
2023-04-30T22:22:40.326Z,98359.66
2023-04-30T22:25:09.901Z,98368.97
2023-04-30T22:27:36.933Z,98372.22
2023-04-30T22:30:04.113Z,98358.44
2023-04-30T22:32:31.051Z,98374.53
2023-04-30T22:35:00.369Z,98369.66
2023-04-30T22:37:27.213Z,98363.00
2023-04-30T22:39:54.178Z,98371.03
2023-04-30T22:42:21.279Z,98364.41
2023-04-30T22:44:48.202Z,98369.88
2023-04-30T22:47:18.967Z,98388.41
2023-04-30T22:49:46.154Z,98395.16
2023-04-30T22:52:13.039Z,98399.28
2023-04-30T22:54:41.296Z,98421.50
2023-04-30T22:57:08.195Z,98411.16
2023-04-30T22:59:35.020Z,98406.91
2023-04-30T23:02:04.609Z,98411.66
2023-04-30T23:04:32.162Z,98420.53
2023-04-30T23:06:59.345Z,98407.97
2023-04-30T23:09:26.420Z,98421.06
2023-04-30T23:11:53.413Z,98394.63
2023-04-30T23:14:21.278Z,98406.81
2023-04-30T23:16:52.747Z,98422.34
2023-04-30T23:19:19.835Z,98430.59
2023-04-30T23:21:46.736Z,98435.06
2023-04-30T23:24:14.886Z,98457.16
2023-04-30T23:26:41.809Z,98401.00
2023-04-30T23:29:08.826Z,98402.78
2023-04-30T23:31:35.896Z,98433.88
2023-04-30T23:34:02.963Z,98445.63
2023-04-30T23:36:32.552Z,98443.84
2023-04-30T23:38:59.543Z,98437.28
2023-04-30T23:41:26.459Z,98446.38
2023-04-30T23:43:53.491Z,98442.66
2023-04-30T23:46:20.358Z,98424.25
2023-04-30T23:48:54.619Z,98404.06
2023-04-30T23:51:21.852Z,98428.28
2023-04-30T23:53:48.841Z,98435.88
2023-04-30T23:56:16.424Z,98455.34
2023-04-30T23:58:45.739Z,98430.47
